Time;durP1;ratioP1;P1;durP2;ratioP2;P2;SDS_P1;SDS_P2;PMS_P1;PMS_P2;Temp;Humidity;BMP_temperature;BMP_pressure;BME280_temperature;BME280_humidity;BME280_pressure;Samples;Min_cycle;Max_cycle;Signal;HPM_P1;HPM_P2
2023/01/05 00:01:23;;;;;;;0.77;0.70;;;10.70;99.90;;;;;;6132493;23;20242;-73
2023/01/05 00:03:50;;;;;;;0.70;0.60;;;10.70;99.90;;;;;;6120185;23;20265;-73
2023/01/05 00:06:18;;;;;;;0.60;0.52;;;10.70;99.90;;;;;;6147471;23;20241;-73
2023/01/05 00:08:45;;;;;;;0.70;0.52;;;10.80;99.90;;;;;;6149033;23;20245;-72
2023/01/05 00:22:31;;;;;;;0.80;0.60;;;10.90;99.90;;;;;;6150019;23;20191;-73
2023/01/05 00:24:58;;;;;;;0.60;0.50;;;10.90;99.90;;;;;;6135883;23;20195;-73
2023/01/05 00:27:27;;;;;;;0.70;0.50;;;10.90;99.90;;;;;;6126851;23;20226;-73
2023/01/05 00:29:54;;;;;;;0.65;0.60;;;10.90;99.90;;;;;;6145925;23;20213;-73
2023/01/05 00:32:21;;;;;;;0.50;0.50;;;10.90;99.90;;;;;;6148845;23;20269;-73
2023/01/05 00:34:53;;;;;;;0.68;0.57;;;10.90;99.90;;;;;;6137481;23;20195;-73
2023/01/05 00:37:20;;;;;;;0.60;0.55;;;10.90;99.90;;;;;;6123959;23;20219;-73
2023/01/05 00:39:47;;;;;;;1.08;0.60;;;10.90;99.90;;;;;;6119786;23;20657;-73
2023/01/05 00:42:14;;;;;;;0.65;0.60;;;10.90;99.90;;;;;;6119534;23;20576;-73
2023/01/05 00:44:42;;;;;;;0.60;0.50;;;11.00;99.90;;;;;;6130489;23;20268;-73
2023/01/05 00:47:10;;;;;;;0.90;0.60;;;10.90;99.90;;;;;;6120294;23;20211;-73
2023/01/05 00:49:36;;;;;;;0.70;0.50;;;11.00;99.90;;;;;;6128941;23;20225;-73
2023/01/05 00:52:04;;;;;;;0.60;0.40;;;11.00;99.90;;;;;;6128467;23;20215;-73
2023/01/05 00:54:31;;;;;;;0.60;0.50;;;11.00;99.90;;;;;;6145663;23;20183;-73
2023/01/05 00:56:59;;;;;;;0.60;0.50;;;11.00;99.90;;;;;;6126973;23;20570;-73
2023/01/05 00:59:26;;;;;;;1.15;0.55;;;11.00;99.90;;;;;;6121848;23;20606;-73
2023/01/05 01:01:55;;;;;;;0.90;0.60;;;11.00;99.90;;;;;;6122112;23;20580;-73
2023/01/05 01:04:22;;;;;;;0.50;0.40;;;11.00;99.90;;;;;;6147549;23;20187;-72
2023/01/05 01:06:50;;;;;;;0.60;0.50;;;11.00;99.90;;;;;;6134775;23;20288;-72
2023/01/05 01:09:17;;;;;;;0.50;0.45;;;11.00;99.90;;;;;;6147834;23;20241;-73
2023/01/05 01:11:44;;;;;;;0.60;0.50;;;11.10;99.90;;;;;;6132156;23;20191;-73
2023/01/05 01:14:12;;;;;;;0.70;0.68;;;11.10;99.90;;;;;;6121065;23;20190;-72
2023/01/05 01:16:40;;;;;;;0.60;0.50;;;11.10;99.90;;;;;;6131019;23;20210;-72
2023/01/05 01:19:09;;;;;;;0.50;0.50;;;11.00;99.90;;;;;;6149249;23;20598;-72
2023/01/05 01:21:36;;;;;;;0.50;0.50;;;11.10;99.90;;;;;;6152371;23;20206;-72
2023/01/05 01:24:03;;;;;;;0.60;0.50;;;11.10;99.90;;;;;;6143635;23;20191;-72
2023/01/05 01:26:30;;;;;;;2.35;0.50;;;11.10;99.90;;;;;;6122220;23;20624;-72
2023/01/05 01:28:57;;;;;;;1.80;0.50;;;11.10;99.90;;;;;;6130894;23;20560;-73
2023/01/05 01:31:24;;;;;;;1.08;0.50;;;11.10;99.90;;;;;;6125855;23;20248;-73
2023/01/05 01:33:51;;;;;;;1.02;0.60;;;11.10;99.90;;;;;;6129501;23;20281;-73
2023/01/05 01:36:19;;;;;;;0.50;0.50;;;11.10;99.90;;;;;;6145691;23;20216;-72
2023/01/05 01:38:46;;;;;;;0.60;0.50;;;11.10;99.90;;;;;;6127363;23;20269;-73
2023/01/05 01:41:13;;;;;;;0.60;0.40;;;11.10;99.90;;;;;;6119776;23;20270;-72
2023/01/05 01:43:43;;;;;;;0.50;0.50;;;11.10;99.90;;;;;;6120480;23;20213;-72
2023/01/05 01:46:12;;;;;;;0.60;0.55;;;11.00;99.90;;;;;;6139256;23;20311;-72
2023/01/05 01:48:41;;;;;;;0.50;0.40;;;11.10;99.90;;;;;;6141675;23;20322;-73
2023/01/05 01:51:13;;;;;;;0.60;0.50;;;11.10;99.90;;;;;;6149050;23;20586;-72
2023/01/05 01:53:44;;;;;;;0.50;0.50;;;11.10;99.90;;;;;;6152117;23;20275;-73
2023/01/05 01:56:14;;;;;;;0.70;0.50;;;11.10;99.90;;;;;;6129203;23;20211;-73
2023/01/05 01:58:42;;;;;;;0.50;0.40;;;11.10;99.90;;;;;;6120200;23;20187;-73
2023/01/05 02:01:10;;;;;;;0.50;0.40;;;11.10;99.90;;;;;;6118654;23;20273;-72
2023/01/05 02:03:38;;;;;;;0.60;0.40;;;11.10;99.90;;;;;;6123273;23;20635;-73
2023/01/05 02:06:05;;;;;;;0.60;0.40;;;11.10;99.90;;;;;;6128550;23;20279;-73
2023/01/05 02:08:33;;;;;;;0.82;0.60;;;11.10;99.90;;;;;;6126904;23;20215;-73
2023/01/05 02:11:17;;;;;;;0.60;0.40;;;11.10;99.90;;;;;;6119812;23;20187;-73
2023/01/05 02:14:00;;;;;;;0.50;0.40;;;11.10;99.90;;;;;;6119486;23;20179;-72
2023/01/05 02:16:37;;;;;;;1.08;0.50;;;11.10;99.90;;;;;;6131519;23;20245;-73
2023/01/05 02:19:31;;;;;;;0.50;0.45;;;11.10;99.90;;;;;;6145817;23;20182;-73
2023/01/05 02:22:06;;;;;;;0.50;0.40;;;11.10;99.90;;;;;;6142529;23;20191;-73
2023/01/05 02:25:06;;;;;;;0.98;0.43;;;11.10;99.90;;;;;;6127031;23;20208;-73
2023/01/05 02:27:48;;;;;;;0.70;0.50;;;11.10;99.90;;;;;;6142653;23;20242;-73
2023/01/05 02:30:43;;;;;;;0.68;0.50;;;11.10;99.90;;;;;;6138161;23;20235;-73
2023/01/05 02:33:25;;;;;;;0.50;0.40;;;11.10;99.90;;;;;;6103869;23;20184;-73
2023/01/05 02:35:58;;;;;;;0.50;0.40;;;11.10;99.90;;;;;;6125341;23;20284;-73
2023/01/05 02:38:34;;;;;;;0.73;0.47;;;11.10;99.90;;;;;;6119754;23;20252;-73
2023/01/05 02:41:07;;;;;;;0.50;0.40;;;11.10;99.90;;;;;;6119332;23;20236;-72
2023/01/05 02:43:34;;;;;;;1.40;0.50;;;11.10;99.90;;;;;;6139778;23;20213;-73
2023/01/05 02:46:02;;;;;;;0.95;0.50;;;11.20;99.90;;;;;;6132762;23;20213;-73
2023/01/05 02:48:31;;;;;;;1.50;0.45;;;11.20;99.90;;;;;;6135375;23;20210;-73
2023/01/05 02:51:02;;;;;;;0.50;0.40;;;11.20;99.90;;;;;;6148467;23;20191;-73
2023/01/05 02:53:33;;;;;;;0.50;0.40;;;11.20;99.90;;;;;;6147596;23;20278;-73
2023/01/05 02:56:05;;;;;;;0.50;0.50;;;11.20;99.90;;;;;;6145881;23;20215;-72
2023/01/05 02:58:35;;;;;;;0.88;0.63;;;11.20;99.90;;;;;;6144472;23;20714;-73
2023/01/05 03:01:07;;;;;;;0.60;0.47;;;11.10;99.90;;;;;;6143130;23;20669;-73
2023/01/05 03:03:40;;;;;;;0.70;0.43;;;11.20;99.90;;;;;;6139185;23;20255;-72
2023/01/05 03:06:12;;;;;;;1.17;0.60;;;11.20;99.90;;;;;;6148321;23;20599;-72
2023/01/05 03:08:46;;;;;;;0.75;0.63;;;11.30;99.90;;;;;;6140112;23;20218;-72
2023/01/05 03:14:12;;;;;;;0.75;0.47;;;11.20;99.90;;;;;;6069793;23;20637;-71
2023/01/05 03:16:40;;;;;;;0.90;0.45;;;11.20;99.90;;;;;;6130364;23;20243;-72
2023/01/05 03:36:25;;;;;;;0.60;0.50;;;11.50;99.90;;;;;;6023560;23;20301;-72
2023/01/05 03:38:55;;;;;;;0.50;0.40;;;11.50;99.90;;;;;;6019767;23;20177;-72
2023/01/05 03:41:23;;;;;;;0.70;0.45;;;11.50;99.90;;;;;;6139577;23;20203;-72
2023/01/05 03:43:51;;;;;;;0.50;0.40;;;11.60;99.90;;;;;;6140253;23;20191;-73
2023/01/05 03:46:20;;;;;;;0.85;0.50;;;11.60;99.90;;;;;;6140622;23;20211;-73
2023/01/05 03:48:48;;;;;;;0.60;0.43;;;11.60;99.90;;;;;;6124446;23;20310;-72
2023/01/05 03:51:16;;;;;;;0.50;0.40;;;11.70;99.90;;;;;;6133693;23;20191;-72
2023/01/05 03:53:44;;;;;;;0.50;0.38;;;11.80;99.90;;;;;;6126997;23;20554;-72
2023/01/05 03:56:11;;;;;;;0.50;0.40;;;11.90;99.90;;;;;;6141694;23;20290;-72
2023/01/05 03:58:38;;;;;;;0.65;0.40;;;12.00;99.90;;;;;;6146831;23;20265;-72
2023/01/05 04:01:06;;;;;;;0.50;0.40;;;12.00;99.90;;;;;;6123692;23;20191;-72
2023/01/05 04:03:33;;;;;;;0.50;0.40;;;12.10;99.90;;;;;;6124609;23;20191;-72
2023/01/05 04:06:01;;;;;;;0.50;0.40;;;12.10;99.90;;;;;;6139348;23;20280;-72
2023/01/05 04:08:28;;;;;;;0.50;0.40;;;12.10;99.90;;;;;;6139943;23;20763;-72
2023/01/05 04:10:56;;;;;;;0.60;0.40;;;12.10;99.90;;;;;;6127399;23;20215;-73
2023/01/05 04:13:24;;;;;;;1.25;0.40;;;12.20;99.90;;;;;;6131588;23;20211;-72
2023/01/05 04:15:51;;;;;;;0.50;0.40;;;12.20;99.90;;;;;;6131263;23;20208;-72
2023/01/05 04:18:18;;;;;;;0.50;0.40;;;12.20;99.90;;;;;;6134095;23;20273;-72
2023/01/05 04:20:45;;;;;;;0.80;0.40;;;12.30;99.90;;;;;;6129551;23;20266;-72
2023/01/05 04:23:12;;;;;;;0.50;0.40;;;12.20;99.90;;;;;;6119930;23;20188;-72
2023/01/05 04:25:39;;;;;;;0.50;0.40;;;12.20;99.90;;;;;;6126473;23;20227;-72
2023/01/05 04:28:07;;;;;;;0.73;0.40;;;12.20;99.90;;;;;;6119443;23;20266;-73
2023/01/05 04:30:34;;;;;;;0.90;0.40;;;12.10;99.90;;;;;;6122824;23;20654;-72
2023/01/05 04:33:01;;;;;;;0.77;0.40;;;12.10;99.90;;;;;;6128769;23;20229;-72
2023/01/05 04:35:28;;;;;;;0.60;0.50;;;12.10;99.90;;;;;;6137784;23;20230;-73
2023/01/05 04:37:55;;;;;;;0.65;0.50;;;12.10;99.90;;;;;;6130076;23;20617;-72
2023/01/05 04:40:23;;;;;;;0.50;0.40;;;12.10;99.90;;;;;;6134103;23;20262;-72
2023/01/05 04:42:49;;;;;;;0.60;0.43;;;12.10;99.90;;;;;;6143244;23;20714;-72
2023/01/05 04:45:18;;;;;;;0.60;0.40;;;12.10;99.90;;;;;;6135403;23;20542;-72
2023/01/05 04:47:45;;;;;;;0.50;0.40;;;12.10;99.90;;;;;;6122027;23;20279;-72
2023/01/05 04:50:12;;;;;;;0.60;0.40;;;12.10;99.90;;;;;;6135471;23;20250;-72
2023/01/05 04:52:39;;;;;;;0.50;0.40;;;12.10;99.90;;;;;;6143930;23;20188;-73
2023/01/05 04:55:06;;;;;;;0.52;0.40;;;12.20;99.90;;;;;;6129547;23;20621;-72
2023/01/05 04:57:33;;;;;;;0.60;0.40;;;12.20;99.90;;;;;;6125672;23;20203;-72
2023/01/05 05:00:00;;;;;;;0.70;0.40;;;12.20;99.90;;;;;;6125261;23;20298;-72
2023/01/05 05:02:29;;;;;;;0.50;0.40;;;12.10;99.90;;;;;;6120968;23;20270;-72
2023/01/05 05:04:56;;;;;;;0.80;0.47;;;12.00;99.90;;;;;;6120922;23;20214;-72
2023/01/05 05:07:23;;;;;;;0.50;0.40;;;11.90;99.90;;;;;;6129609;23;20297;-72
2023/01/05 05:09:50;;;;;;;0.50;0.40;;;11.80;99.90;;;;;;6141569;23;20214;-72
2023/01/05 05:12:19;;;;;;;0.50;0.40;;;11.70;99.90;;;;;;6119464;23;20196;-72
2023/01/05 05:14:46;;;;;;;0.50;0.40;;;11.70;99.90;;;;;;6132117;23;20191;-72
2023/01/05 05:17:13;;;;;;;0.60;0.40;;;11.60;99.90;;;;;;6122975;23;20662;-72
2023/01/05 05:19:41;;;;;;;0.50;0.40;;;11.60;99.90;;;;;;6124237;23;20191;-72
2023/01/05 05:22:09;;;;;;;0.50;0.40;;;11.50;99.90;;;;;;6134625;23;20198;-72
2023/01/05 05:24:36;;;;;;;0.50;0.40;;;11.40;99.90;;;;;;6141715;23;20544;-73
2023/01/05 05:27:03;;;;;;;0.50;0.40;;;11.30;99.90;;;;;;6133384;23;20210;-72
2023/01/05 05:29:30;;;;;;;0.50;0.40;;;11.30;99.90;;;;;;6119951;23;20250;-71
2023/01/05 05:31:57;;;;;;;0.50;0.40;;;11.20;99.90;;;;;;6125988;23;20349;-71
2023/01/05 05:34:24;;;;;;;0.50;0.40;;;11.20;99.90;;;;;;6128923;23;20274;-72
2023/01/05 05:36:52;;;;;;;0.63;0.45;;;11.10;99.90;;;;;;6121829;23;20299;-72
2023/01/05 05:39:20;;;;;;;1.25;0.40;;;11.00;99.90;;;;;;6138230;23;20572;-72
2023/01/05 05:41:46;;;;;;;0.90;0.50;;;11.10;99.90;;;;;;6120987;23;20191;-71
2023/01/05 05:44:13;;;;;;;0.50;0.40;;;10.90;99.90;;;;;;6128686;23;20270;-71
2023/01/05 05:46:41;;;;;;;0.57;0.50;;;10.90;99.90;;;;;;6128128;23;20297;-71
2023/01/05 05:49:08;;;;;;;2.45;0.70;;;10.90;99.90;;;;;;6126502;23;20661;-76
2023/01/05 05:51:35;;;;;;;1.02;0.60;;;10.90;99.90;;;;;;6137658;23;20191;-76
2023/01/05 05:54:03;;;;;;;1.88;0.70;;;10.90;99.90;;;;;;6123959;23;20215;-77
2023/01/05 05:56:30;;;;;;;0.98;0.90;;;10.80;99.90;;;;;;6127956;23;20214;-76
2023/01/05 05:58:57;;;;;;;1.05;0.75;;;10.80;99.90;;;;;;6140300;23;20261;-75
2023/01/05 06:01:24;;;;;;;2.13;0.90;;;10.80;99.90;;;;;;6123064;23;20311;-76
2023/01/05 06:03:51;;;;;;;3.22;0.93;;;10.80;99.90;;;;;;6122562;23;20183;-78
2023/01/05 06:06:18;;;;;;;1.35;1.02;;;10.80;99.90;;;;;;6120667;23;20211;-78
2023/01/05 06:08:45;;;;;;;1.92;1.10;;;10.80;99.90;;;;;;6149301;23;20217;-79
2023/01/05 06:11:13;;;;;;;2.15;1.00;;;10.80;99.90;;;;;;6175949;23;20625;-77
2023/01/05 06:13:41;;;;;;;1.50;0.85;;;10.80;99.90;;;;;;6136856;23;20190;-78
2023/01/05 06:16:08;;;;;;;2.80;1.02;;;10.80;99.90;;;;;;6133849;23;20741;-80
2023/01/05 06:18:35;;;;;;;1.50;1.00;;;10.70;99.90;;;;;;6126284;23;20184;-74
2023/01/05 06:21:02;;;;;;;3.35;1.23;;;10.70;99.90;;;;;;6137594;23;20183;-73
2023/01/05 06:23:29;;;;;;;2.60;1.33;;;10.80;99.90;;;;;;6126625;23;20615;-72
2023/01/05 06:25:56;;;;;;;4.05;1.08;;;10.70;99.90;;;;;;6133954;23;20290;-72
2023/01/05 06:28:24;;;;;;;1.90;0.90;;;10.70;99.90;;;;;;6127974;23;20550;-72
2023/01/05 06:30:51;;;;;;;3.15;1.35;;;10.70;99.90;;;;;;6128315;23;20614;-72
2023/01/05 06:33:18;;;;;;;3.13;1.20;;;10.80;99.90;;;;;;6144091;23;20186;-73
2023/01/05 06:35:45;;;;;;;2.58;1.38;;;10.80;99.90;;;;;;6135877;23;20210;-73
2023/01/05 06:38:14;;;;;;;4.22;1.40;;;10.80;99.90;;;;;;6147254;23;20769;-72
2023/01/05 06:40:43;;;;;;;1.25;1.10;;;10.80;99.90;;;;;;6144539;23;20190;-73
2023/01/05 06:43:10;;;;;;;1.98;1.15;;;10.80;99.90;;;;;;6139672;23;20195;-74
2023/01/05 06:45:39;;;;;;;3.17;1.50;;;10.80;99.90;;;;;;6133478;23;20297;-72
2023/01/05 06:48:06;;;;;;;4.18;1.45;;;10.90;99.90;;;;;;6131636;23;20214;-72
2023/01/05 06:50:33;;;;;;;7.32;1.25;;;10.90;99.90;;;;;;6126193;23;20266;-71
2023/01/05 06:53:01;;;;;;;3.63;1.73;;;10.90;99.90;;;;;;6148694;23;20187;-72
2023/01/05 06:55:28;;;;;;;1.88;1.20;;;10.90;99.90;;;;;;6119526;23;20290;-72
2023/01/05 06:57:55;;;;;;;3.08;1.25;;;10.90;99.90;;;;;;6127274;23;20223;-72
2023/01/05 07:00:23;;;;;;;2.28;1.20;;;10.90;99.90;;;;;;6115413;23;20184;-72
2023/01/05 07:02:51;;;;;;;1.95;1.38;;;10.90;99.90;;;;;;6146299;23;20538;-73
2023/01/05 07:05:18;;;;;;;4.70;1.85;;;11.00;99.90;;;;;;6126414;23;20202;-74
2023/01/05 07:07:46;;;;;;;3.67;1.52;;;11.00;99.90;;;;;;6130637;23;20179;-73
2023/01/05 07:10:13;;;;;;;2.55;1.20;;;11.00;99.90;;;;;;6136422;23;20738;-74
2023/01/05 07:12:40;;;;;;;3.95;1.50;;;11.00;99.90;;;;;;6136687;23;20191;-74
2023/01/05 07:15:08;;;;;;;2.38;1.25;;;11.00;99.90;;;;;;6123041;23;20576;-74
2023/01/05 07:17:36;;;;;;;5.15;1.60;;;11.00;99.90;;;;;;6121299;23;20183;-74
2023/01/05 07:20:06;;;;;;;4.18;1.83;;;11.00;99.90;;;;;;6136230;23;20192;-72
2023/01/05 07:22:33;;;;;;;5.32;1.75;;;11.00;99.90;;;;;;6129367;23;20180;-73
2023/01/05 07:25:00;;;;;;;3.83;1.45;;;11.00;99.90;;;;;;6139545;23;20547;-74
2023/01/05 07:27:27;;;;;;;3.97;1.50;;;11.00;99.90;;;;;;6138850;23;20656;-74
2023/01/05 07:29:54;;;;;;;5.18;1.30;;;11.00;99.90;;;;;;6129417;23;20678;-75
2023/01/05 07:32:21;;;;;;;3.60;1.60;;;11.00;99.90;;;;;;6128648;23;20187;-71
2023/01/05 07:34:48;;;;;;;4.95;1.40;;;11.00;99.90;;;;;;6137027;23;20183;-74
2023/01/05 07:37:17;;;;;;;5.85;1.83;;;11.00;99.90;;;;;;6111483;23;20183;-74
2023/01/05 07:39:44;;;;;;;3.17;1.60;;;11.00;99.90;;;;;;6126372;23;20222;-74
2023/01/05 07:42:12;;;;;;;4.55;1.67;;;11.00;99.90;;;;;;6130078;23;20195;-74
2023/01/05 07:44:39;;;;;;;4.63;2.05;;;11.00;99.90;;;;;;6123691;23;20644;-74
2023/01/05 07:47:06;;;;;;;4.53;1.90;;;11.00;99.90;;;;;;6126600;23;20243;-75
2023/01/05 07:49:33;;;;;;;3.10;1.50;;;11.00;99.90;;;;;;6122947;23;20206;-75
2023/01/05 07:52:00;;;;;;;3.15;1.60;;;11.00;99.90;;;;;;6134779;23;20228;-74
2023/01/05 07:54:28;;;;;;;3.08;1.52;;;11.00;99.90;;;;;;6129923;23;20663;-74
2023/01/05 07:56:55;;;;;;;6.43;1.60;;;11.00;99.90;;;;;;6139473;23;20305;-75
2023/01/05 07:59:22;;;;;;;4.28;1.58;;;11.00;99.90;;;;;;6134809;23;20367;-74
2023/01/05 08:01:49;;;;;;;3.42;1.30;;;11.00;99.90;;;;;;6131469;23;20194;-74
2023/01/05 08:04:16;;;;;;;4.38;1.50;;;11.00;99.90;;;;;;6125545;23;20191;-75
2023/01/05 08:06:43;;;;;;;3.38;1.45;;;11.00;99.90;;;;;;6127890;23;20230;-77
2023/01/05 08:11:56;;;;;;;5.72;1.83;;;11.00;99.90;;;;;;6136039;23;20187;-75
2023/01/05 08:14:23;;;;;;;2.67;1.20;;;11.00;99.90;;;;;;6126557;23;20234;-75
2023/01/05 08:16:50;;;;;;;4.25;2.22;;;11.10;99.90;;;;;;6131164;23;20309;-75
2023/01/05 08:19:18;;;;;;;4.25;1.80;;;11.10;99.90;;;;;;6132337;23;20230;-75
2023/01/05 08:21:45;;;;;;;5.03;1.98;;;11.10;99.90;;;;;;6131636;23;20182;-75
2023/01/05 08:24:12;;;;;;;3.88;1.48;;;11.10;99.90;;;;;;6137389;23;20710;-75
2023/01/05 08:26:39;;;;;;;3.95;1.85;;;11.10;99.90;;;;;;6134077;23;20211;-76
2023/01/05 08:29:08;;;;;;;4.05;1.30;;;11.10;99.90;;;;;;6136804;23;20190;-75
2023/01/05 08:31:36;;;;;;;4.60;1.60;;;11.20;99.90;;;;;;6131314;23;21023;-76
2023/01/05 08:34:04;;;;;;;3.85;1.33;;;11.20;99.90;;;;;;6132295;23;20191;-76
2023/01/05 08:36:32;;;;;;;3.35;2.03;;;11.20;99.90;;;;;;6128929;23;20207;-76
2023/01/05 08:39:00;;;;;;;6.32;1.60;;;11.30;99.90;;;;;;6132788;23;20183;-76
2023/01/05 08:41:30;;;;;;;5.68;1.95;;;11.30;99.90;;;;;;6131848;23;20187;-76
2023/01/05 08:43:58;;;;;;;5.72;1.60;;;11.30;99.90;;;;;;6128244;23;20210;-75
2023/01/05 08:46:28;;;;;;;4.32;1.67;;;11.20;99.90;;;;;;6127968;23;20213;-75
2023/01/05 08:48:57;;;;;;;9.38;2.35;;;11.20;99.90;;;;;;6136578;23;20196;-76
2023/01/05 08:51:24;;;;;;;6.20;1.90;;;11.20;99.90;;;;;;6131688;23;20760;-76
2023/01/05 08:53:51;;;;;;;6.00;1.63;;;11.20;99.90;;;;;;6125305;23;20688;-75
2023/01/05 08:56:19;;;;;;;4.53;1.70;;;11.20;99.90;;;;;;6132814;23;20293;-76
2023/01/05 08:58:46;;;;;;;7.28;2.63;;;11.20;99.90;;;;;;6134495;23;20191;-76
2023/01/05 09:01:16;;;;;;;4.60;1.77;;;11.10;99.90;;;;;;6126578;23;20197;-76
2023/01/05 09:03:44;;;;;;;5.07;1.67;;;11.20;99.90;;;;;;6122168;23;20191;-76
2023/01/05 09:06:12;;;;;;;4.93;1.70;;;11.10;99.90;;;;;;6134148;23;20213;-76
2023/01/05 09:08:42;;;;;;;4.03;1.70;;;11.10;99.90;;;;;;6137482;23;20190;-75
2023/01/05 09:11:11;;;;;;;5.15;1.60;;;11.10;99.90;;;;;;6143808;23;20250;-75
2023/01/05 09:13:39;;;;;;;5.95;2.58;;;11.10;99.90;;;;;;6126267;23;20253;-76
2023/01/05 09:16:09;;;;;;;8.20;1.92;;;11.10;99.90;;;;;;6132946;23;20208;-76
2023/01/05 09:18:36;;;;;;;4.43;1.88;;;11.20;99.90;;;;;;6122145;23;20272;-76
2023/01/05 09:21:06;;;;;;;7.03;1.60;;;11.20;99.90;;;;;;6111255;23;20722;-75
2023/01/05 09:23:35;;;;;;;5.22;1.85;;;11.20;99.90;;;;;;6119026;23;20595;-76
2023/01/05 09:26:03;;;;;;;6.85;1.90;;;11.20;99.90;;;;;;6118097;23;20696;-80
2023/01/05 09:28:30;;;;;;;5.13;1.55;;;11.20;99.90;;;;;;6128061;23;20191;-76
2023/01/05 09:30:57;;;;;;;4.57;1.92;;;11.20;99.90;;;;;;6120561;23;20235;-71
2023/01/05 09:33:25;;;;;;;4.47;1.95;;;11.20;99.90;;;;;;6124651;23;20474;-73
2023/01/05 09:35:55;;;;;;;8.45;1.92;;;11.30;99.90;;;;;;6113985;23;20207;-73
2023/01/05 09:38:24;;;;;;;9.68;1.83;;;11.30;99.90;;;;;;6119815;23;20579;-73
2023/01/05 09:40:55;;;;;;;6.22;2.40;;;11.30;99.90;;;;;;6117774;23;20235;-73
2023/01/05 09:43:26;;;;;;;5.70;2.28;;;11.30;99.90;;;;;;6141606;23;20233;-72
2023/01/05 09:45:54;;;;;;;6.75;1.95;;;11.40;99.90;;;;;;6115584;23;20281;-74
2023/01/05 09:48:23;;;;;;;4.03;2.20;;;11.40;99.90;;;;;;6121564;23;20214;-72
2023/01/05 09:50:51;;;;;;;4.90;2.13;;;11.40;99.90;;;;;;6133718;23;20206;-72
2023/01/05 09:53:25;;;;;;;8.90;2.17;;;11.40;99.90;;;;;;6130904;23;20185;-70
2023/01/05 09:55:53;;;;;;;4.28;1.90;;;11.40;99.90;;;;;;6126610;23;20217;-73
2023/01/05 09:58:24;;;;;;;6.18;1.80;;;11.40;99.90;;;;;;6121136;23;20222;-78
2023/01/05 10:01:04;;;;;;;8.60;2.78;;;11.40;99.90;;;;;;6106777;23;20269;-72
2023/01/05 10:03:36;;;;;;;7.45;3.15;;;11.30;99.90;;;;;;6094306;23;20210;-67
2023/01/05 10:06:03;;;;;;;9.65;2.38;;;11.30;99.90;;;;;;6112069;23;20222;-67
2023/01/05 10:08:36;;;;;;;6.53;2.33;;;11.30;99.90;;;;;;6122982;23;20289;-67
2023/01/05 10:13:59;;;;;;;8.07;2.17;;;11.30;99.90;;;;;;6110221;23;20236;-67
2023/01/05 10:16:27;;;;;;;5.40;2.00;;;11.30;99.90;;;;;;6098328;23;20401;-67
2023/01/05 10:18:54;;;;;;;9.55;2.60;;;11.20;99.90;;;;;;6104211;23;20194;-67
2023/01/05 10:21:33;;;;;;;6.57;2.13;;;11.20;99.90;;;;;;6108884;23;20265;-67
2023/01/05 10:24:20;;;;;;;5.60;2.17;;;11.20;99.90;;;;;;6127752;23;20635;-78
2023/01/05 10:26:56;;;;;;;7.20;2.13;;;11.20;99.90;;;;;;6130024;23;20187;-67
2023/01/05 10:29:30;;;;;;;7.68;2.30;;;11.20;99.90;;;;;;6137768;23;20266;-67
2023/01/05 10:32:07;;;;;;;9.57;2.28;;;11.20;99.90;;;;;;6134890;23;20214;-67
2023/01/05 10:34:51;;;;;;;9.32;2.92;;;11.20;99.90;;;;;;6138465;23;20207;-67
2023/01/05 10:37:36;;;;;;;8.68;2.03;;;11.30;99.90;;;;;;6133775;23;20389;-67
2023/01/05 10:40:17;;;;;;;8.85;2.17;;;11.30;99.90;;;;;;6132234;23;20183;-67
2023/01/05 10:42:52;;;;;;;10.75;2.45;;;11.40;99.90;;;;;;6137791;23;20209;-67
2023/01/05 10:45:21;;;;;;;5.57;2.30;;;11.40;99.90;;;;;;6127575;23;20208;-67
2023/01/05 10:47:49;;;;;;;10.05;2.13;;;11.40;99.90;;;;;;6109676;23;20179;-69
2023/01/05 10:50:35;;;;;;;8.10;2.30;;;11.40;99.90;;;;;;6133820;23;20187;-67
2023/01/05 10:53:10;;;;;;;6.88;2.60;;;11.40;99.90;;;;;;6119045;23;20190;-66
2023/01/05 10:55:48;;;;;;;8.15;2.17;;;11.40;99.90;;;;;;6112544;23;20264;-67
2023/01/05 10:58:23;;;;;;;5.72;2.00;;;11.40;99.90;;;;;;6128446;23;20543;-67
2023/01/05 11:00:54;;;;;;;6.75;2.20;;;11.40;99.90;;;;;;6131716;23;20260;-67
2023/01/05 11:03:28;;;;;;;7.45;2.20;;;11.50;99.90;;;;;;6120787;23;20239;-67
2023/01/05 11:05:55;;;;;;;7.00;2.95;;;11.60;99.90;;;;;;6125476;23;20211;-67
2023/01/05 11:08:26;;;;;;;9.40;2.88;;;11.50;99.90;;;;;;6133092;23;20187;-67
2023/01/05 11:10:57;;;;;;;7.20;2.50;;;11.60;99.90;;;;;;6135640;23;20219;-67
2023/01/05 11:13:32;;;;;;;5.93;2.60;;;11.60;99.90;;;;;;6136860;23;20200;-67
2023/01/05 11:16:05;;;;;;;10.15;2.40;;;11.60;99.90;;;;;;6136579;23;20217;-67
2023/01/05 11:18:36;;;;;;;6.80;2.40;;;11.60;99.90;;;;;;6135907;23;20208;-68
2023/01/05 11:21:12;;;;;;;7.80;2.67;;;11.50;99.90;;;;;;6133533;23;20284;-67
2023/01/05 11:23:42;;;;;;;6.22;2.17;;;11.50;99.90;;;;;;6124995;23;20273;-68
2023/01/05 11:26:29;;;;;;;5.00;2.08;;;11.60;99.90;;;;;;6113083;23;21794;-67
2023/01/05 11:29:16;;;;;;;7.72;2.75;;;11.50;99.90;;;;;;6123169;23;20210;-67
2023/01/05 11:31:49;;;;;;;9.15;3.55;;;11.50;99.90;;;;;;6118830;23;20705;-67
2023/01/05 11:34:41;;;;;;;10.35;2.72;;;11.50;99.90;;;;;;6119232;23;20239;-66
2023/01/05 11:37:24;;;;;;;7.90;2.70;;;11.40;99.90;;;;;;6107723;23;20191;-67
2023/01/05 11:39:54;;;;;;;13.07;3.10;;;11.40;99.90;;;;;;6127303;23;20240;-67
2023/01/05 11:42:31;;;;;;;10.27;2.88;;;11.50;99.90;;;;;;6118039;23;20202;-67
2023/01/05 11:45:00;;;;;;;10.05;2.65;;;11.50;99.90;;;;;;6133242;23;20857;-67
2023/01/05 11:47:31;;;;;;;8.32;2.35;;;11.50;99.90;;;;;;6132720;23;20267;-67
2023/01/05 11:50:02;;;;;;;7.50;2.20;;;11.60;99.90;;;;;;6128653;23;20183;-67
2023/01/05 11:52:34;;;;;;;8.77;2.30;;;11.60;99.90;;;;;;6118181;23;21052;-67
2023/01/05 11:55:29;;;;;;;8.18;2.30;;;11.60;99.90;;;;;;6130169;23;20206;-67
2023/01/05 11:58:24;;;;;;;9.95;2.80;;;11.60;99.90;;;;;;6129170;23;20228;-67
2023/01/05 12:01:09;;;;;;;9.93;2.63;;;11.60;99.90;;;;;;6141414;23;20228;-67
2023/01/05 12:04:00;;;;;;;10.10;2.60;;;11.60;99.90;;;;;;6135220;23;20298;-68
2023/01/05 12:06:53;;;;;;;8.07;2.60;;;11.60;99.90;;;;;;6120782;23;20240;-67
2023/01/05 12:09:26;;;;;;;8.05;3.15;;;11.60;99.90;;;;;;6119216;23;20186;-68
2023/01/05 12:12:04;;;;;;;8.38;2.30;;;11.60;99.90;;;;;;6151880;23;20213;-67
2023/01/05 12:14:47;;;;;;;8.93;2.80;;;11.70;99.90;;;;;;6125890;23;20202;-67
2023/01/05 12:17:15;;;;;;;7.18;1.95;;;11.70;99.90;;;;;;6126734;23;20190;-67
2023/01/05 12:19:56;;;;;;;8.90;2.30;;;11.60;99.90;;;;;;6123725;23;20187;-67
2023/01/05 12:22:50;;;;;;;8.90;2.80;;;11.60;99.90;;;;;;6114435;23;20279;-68
2023/01/05 12:25:34;;;;;;;5.70;2.15;;;11.60;99.90;;;;;;6120560;23;20290;-67
2023/01/05 12:28:23;;;;;;;7.15;2.75;;;11.60;99.90;;;;;;6126615;23;20535;-67
2023/01/05 12:31:00;;;;;;;7.50;2.42;;;11.50;99.90;;;;;;6125060;23;20179;-67
2023/01/05 12:33:51;;;;;;;9.80;2.50;;;11.60;99.90;;;;;;6122523;23;20196;-67
2023/01/05 12:36:32;;;;;;;7.35;2.78;;;11.60;99.90;;;;;;6114732;23;20903;-67
2023/01/05 12:39:13;;;;;;;5.85;2.45;;;11.50;99.90;;;;;;6124471;23;20538;-67
2023/01/05 12:42:01;;;;;;;8.70;2.60;;;11.50;99.90;;;;;;6138628;23;20186;-66
2023/01/05 12:44:47;;;;;;;8.02;2.67;;;11.50;99.90;;;;;;6128225;23;20200;-66
2023/01/05 12:47:40;;;;;;;9.90;2.90;;;11.50;99.90;;;;;;6137763;23;20190;-66
2023/01/05 12:50:22;;;;;;;7.18;2.40;;;11.50;99.90;;;;;;6133427;23;20750;-66
2023/01/05 12:52:55;;;;;;;8.32;2.65;;;11.50;99.90;;;;;;6128328;23;20270;-67
2023/01/05 12:55:27;;;;;;;7.05;2.50;;;11.50;99.90;;;;;;6125517;23;20331;-67
2023/01/05 12:58:01;;;;;;;7.88;3.10;;;11.50;99.90;;;;;;6115970;23;20179;-66
2023/01/05 13:00:34;;;;;;;12.18;3.20;;;11.50;99.90;;;;;;6130882;23;20256;-66
2023/01/05 13:03:05;;;;;;;10.27;3.10;;;11.20;99.90;;;;;;6129835;23;20566;-66
2023/01/05 13:05:39;;;;;;;7.32;2.45;;;11.50;99.90;;;;;;6119997;23;20199;-67
2023/01/05 13:08:14;;;;;;;8.05;3.08;;;11.50;99.90;;;;;;6127574;23;20191;-67
2023/01/05 13:10:49;;;;;;;5.55;2.40;;;11.40;99.90;;;;;;6136543;23;20630;-67
2023/01/05 13:13:20;;;;;;;13.85;2.92;;;11.40;99.90;;;;;;6126037;23;20650;-67
2023/01/05 13:15:56;;;;;;;8.45;2.40;;;11.40;99.90;;;;;;6126104;23;20199;-67
2023/01/05 13:18:26;;;;;;;8.13;2.90;;;11.50;99.90;;;;;;6126486;23;20211;-67
2023/01/05 13:20:56;;;;;;;9.07;2.60;;;11.50;99.90;;;;;;6118181;23;20186;-67
2023/01/05 13:23:27;;;;;;;7.50;2.80;;;11.50;99.90;;;;;;6110012;23;20257;-67
2023/01/05 13:25:58;;;;;;;8.55;2.30;;;11.50;99.90;;;;;;6121977;23;20211;-67
2023/01/05 13:28:25;;;;;;;9.60;2.47;;;11.50;99.90;;;;;;6135124;23;20187;-68
2023/01/05 13:31:18;;;;;;;10.60;2.83;;;11.50;99.90;;;;;;6125688;23;20266;-68
2023/01/05 13:34:11;;;;;;;10.60;3.20;;;11.50;99.90;;;;;;6132789;23;20247;-67
2023/01/05 13:36:54;;;;;;;6.53;2.50;;;11.50;99.90;;;;;;6124489;23;20549;-67
2023/01/05 13:39:37;;;;;;;8.45;3.10;;;11.50;99.90;;;;;;6123001;23;20179;-65
2023/01/05 13:42:27;;;;;;;11.35;2.90;;;11.50;99.90;;;;;;6119877;23;20249;-66